METAR Data
IDs: Format: Raw Decoded Include TAF

Data at: 1415 UTC 13 Dec 2019

KMPV 131351Z AUTO 19012KT 10SM CLR M03/M07 A3042 RMK AO2 SLP322 T10331072
KMPV 131251Z AUTO 19012KT 10SM CLR M05/M09 A3043 RMK AO2 SLP325 T10501089
KMPV 131151Z AUTO 19009KT 10SM CLR M05/M11 A3043 RMK AO2 SLP328 T10501106 11050 21056 55007
KMPV 131051Z AUTO 19011KT 10SM CLR M05/M11 A3043 RMK AO2 SLP326 T10501111
KMPV 130951Z AUTO 19010KT 10SM CLR M05/M11 A3044 RMK AO2 SLP329 T10501111
KMPV 130851Z AUTO 18006KT 10SM OVC095 M05/M11 A3045 RMK AO2 SLP334 T10501111 58018
KMPV 130751Z AUTO 19008KT 10SM OVC100 M05/M11 A3048 RMK AO2 SLP342 T10501111
KMPV 130651Z AUTO 18005KT 10SM BKN095 M06/M11 A3050 RMK AO2 SLP349 T10561111
KMPV 130551Z AUTO 19007KT 10SM OVC090 M06/M12 A3051 RMK AO2 SLP353 T10561117 11050 21083 56019
KMPV 130451Z AUTO 19006KT 10SM FEW120 M06/M13 A3052 RMK AO2 SLP358 T10611128 410441089
KMPV 130351Z AUTO 18007KT 10SM SCT085 M06/M13 A3054 RMK AO2 SLP365 T10561128
KMPV 130251Z AUTO 18006KT 10SM OVC075 M06/M12 A3057 RMK AO2 SLP373 T10561122 58013
KMPV 130151Z AUTO 12005KT 10SM OVC070 M06/M12 A3059 RMK AO2 SLP381 T10611122
KMPV 130051Z AUTO 13003KT 10SM FEW110 M07/M13 A3060 RMK AO2 SLP385 T10671133
KMPV 122351Z AUTO 00000KT 10SM CLR M08/M13 A3060 RMK AO2 SLP388 T10831133 11044 21089 50000
KMPV 122251Z AUTO 00000KT 10SM CLR M08/M13 A3062 RMK AO2 SLP393 T10831133
KMPV 122151Z AUTO 17003KT 10SM CLR M08/M13 A3061 RMK AO2 SLP389 T10781128
KMPV 122051Z AUTO 17003KT 10SM CLR M06/M14 A3060 RMK AO2 SLP386 T10561139 55002
KMPV 121951Z AUTO 08003KT 10SM FEW041 M05/M14 A3060 RMK AO2 SLP384 T10501139
KMPV 121851Z AUTO 32005KT 10SM FEW043 M06/M13 A3061 RMK AO2 SLP387 T10561133
KMPV 121751Z AUTO VRB04KT 10SM SCT043 M06/M13 A3061 RMK AO2 SLP389 T10561133 11056 21078 58006
KMPV 121651Z AUTO 32009G19KT 10SM BKN039 M06/M14 A3062 RMK AO2 SLP394 T10561139
KMPV 121551Z AUTO 31009G18KT 10SM BKN042 M06/M14 A3064 RMK AO2 SLP399 T10611144
KMPV 121451Z AUTO 29009G17KT 10SM OVC040 M07/M14 A3063 RMK AO2 SLP396 T10671144 51031
KMPV 121351Z AUTO 28006KT 10SM OVC040 M07/M15 A3061 RMK AO2 SLP389 T10721150
KMPV 121251Z AUTO 29010G18KT 250V320 10SM OVC043 M07/M16 A3057 RMK AO2 SLP374 T10721156
KMPV 121151Z AUTO 27009KT 10SM OVC048 M07/M16 A3053 RMK AO2 SLP362 60000 T10721156 11072 21078 53026
KMPV 121051Z AUTO 29009G16KT 10SM OVC048 M08/M16 A3050 RMK AO2 SLP350 T10781156
KMPV 120951Z AUTO 29010G17KT 10SM OVC050 M08/M16 A3047 RMK AO2 SLP340 T10781161
KMPV 120851Z AUTO 30012G16KT 10SM OVC048 M08/M16 A3046 RMK AO2 SLP335 60000 T10781161 51025
KMPV 120751Z AUTO 28008KT 10SM BKN050 BKN055 M08/M17 A3044 RMK AO2 SLP330 T10781167
KMPV 120651Z AUTO 30013G26KT 270V340 10SM BKN055 M07/M17 A3041 RMK AO2 PK WND 30027/0627 UPE0558 SLP319 P0000 T10721167
KMPV 120551Z AUTO 30018G31KT 3SM UP BKN045 BKN055 M07/M16 A3038 RMK AO2 PK WND 29031/0549 UPB46 SLP309 P0000 60000 T10721156 11028 21072 53043
KMPV 120451Z AUTO 28008KT 250V330 10SM SCT050 SCT060 M07/M15 A3034 RMK AO2 SNE0356 SLP295 P0000 T10721150 410221078
KMPV 120351Z AUTO 29007G20KT 240V310 6SM -SN FEW027 BKN032 OVC055 M06/M11 A3029 RMK AO2 SNB26 SLP279 P0000 T10611111
KMPV 120251Z AUTO VRB04G14KT 10SM SCT037 BKN075 OVC095 M06/M11 A3025 RMK AO2 SNE23 SLP265 P0000 60000 T10561106 53035
KMPV 120235Z AUTO 29009G17KT 10SM SCT045 OVC075 M06/M10 A3024 RMK AO2 SNE23 P0000 T10561100
KMPV 120218Z AUTO 27010G21KT 240V340 3SM -SN OVC025 M06/M09 A3022 RMK AO2 P0000 T10561089